sensor_id;sensor_type;location;lat;lon;timestamp;P1;durP1;ratioP1;P2;durP2;ratioP2
73015;SDS011;61893;50.074;14.440;2023-04-24T00:01:13;16.30;;;9.15;;
73015;SDS011;61893;50.074;14.440;2023-04-24T00:03:40;13.38;;;7.82;;
73015;SDS011;61893;50.074;14.440;2023-04-24T00:06:10;11.93;;;8.55;;
73015;SDS011;61893;50.074;14.440;2023-04-24T00:09:33;12.88;;;7.80;;
73015;SDS011;61893;50.074;14.440;2023-04-24T00:12:46;15.35;;;9.07;;
73015;SDS011;61893;50.074;14.440;2023-04-24T00:15:33;13.02;;;8.25;;
73015;SDS011;61893;50.074;14.440;2023-04-24T00:19:39;12.75;;;8.07;;
73015;SDS011;61893;50.074;14.440;2023-04-24T00:22:55;15.30;;;8.25;;
73015;SDS011;61893;50.074;14.440;2023-04-24T00:25:50;11.45;;;7.80;;
73015;SDS011;61893;50.074;14.440;2023-04-24T00:29:15;13.13;;;7.68;;
73015;SDS011;61893;50.074;14.440;2023-04-24T00:31:57;11.68;;;7.90;;
73015;SDS011;61893;50.074;14.440;2023-04-24T00:34:31;15.60;;;7.95;;
73015;SDS011;61893;50.074;14.440;2023-04-24T00:37:26;10.70;;;7.88;;
73015;SDS011;61893;50.074;14.440;2023-04-24T00:41:01;12.73;;;7.63;;
73015;SDS011;61893;50.074;14.440;2023-04-24T00:44:00;11.32;;;6.75;;
73015;SDS011;61893;50.074;14.440;2023-04-24T00:46:49;14.73;;;7.75;;
73015;SDS011;61893;50.074;14.440;2023-04-24T00:49:43;10.50;;;7.23;;
73015;SDS011;61893;50.074;14.440;2023-04-24T00:52:33;11.98;;;6.72;;
73015;SDS011;61893;50.074;14.440;2023-04-24T00:55:30;12.73;;;7.13;;
73015;SDS011;61893;50.074;14.440;2023-04-24T00:58:42;10.82;;;6.78;;
73015;SDS011;61893;50.074;14.440;2023-04-24T01:01:26;12.40;;;6.03;;
73015;SDS011;61893;50.074;14.440;2023-04-24T01:04:27;10.40;;;6.80;;
73015;SDS011;61893;50.074;14.440;2023-04-24T01:07:02;13.00;;;6.22;;
73015;SDS011;61893;50.074;14.440;2023-04-24T01:09:28;8.90;;;6.05;;
73015;SDS011;61893;50.074;14.440;2023-04-24T01:11:57;9.25;;;5.25;;
73015;SDS011;61893;50.074;14.440;2023-04-24T01:14:36;10.02;;;5.25;;
73015;SDS011;61893;50.074;14.440;2023-04-24T01:17:07;6.70;;;4.65;;
73015;SDS011;61893;50.074;14.440;2023-04-24T01:20:36;6.65;;;4.05;;
73015;SDS011;61893;50.074;14.440;2023-04-24T01:23:16;5.25;;;3.67;;
73015;SDS011;61893;50.074;14.440;2023-04-24T01:25:57;4.93;;;3.30;;
73015;SDS011;61893;50.074;14.440;2023-04-24T01:29:35;4.07;;;2.65;;
73015;SDS011;61893;50.074;14.440;2023-04-24T01:32:03;4.95;;;2.60;;
73015;SDS011;61893;50.074;14.440;2023-04-24T01:34:45;4.20;;;2.50;;
73015;SDS011;61893;50.074;14.440;2023-04-24T01:37:12;3.42;;;2.38;;
73015;SDS011;61893;50.074;14.440;2023-04-24T01:39:38;3.22;;;2.25;;
73015;SDS011;61893;50.074;14.440;2023-04-24T01:42:17;4.28;;;2.20;;
73015;SDS011;61893;50.074;14.440;2023-04-24T01:44:43;5.35;;;2.50;;
73015;SDS011;61893;50.074;14.440;2023-04-24T01:47:10;6.57;;;3.63;;
73015;SDS011;61893;50.074;14.440;2023-04-24T01:49:38;5.57;;;2.25;;
73015;SDS011;61893;50.074;14.440;2023-04-24T01:52:16;5.25;;;2.72;;
73015;SDS011;61893;50.074;14.440;2023-04-24T01:54:59;6.35;;;3.10;;
73015;SDS011;61893;50.074;14.440;2023-04-24T01:57:25;3.55;;;2.00;;
73015;SDS011;61893;50.074;14.440;2023-04-24T02:00:09;3.25;;;2.22;;
73015;SDS011;61893;50.074;14.440;2023-04-24T02:03:06;4.60;;;2.65;;
73015;SDS011;61893;50.074;14.440;2023-04-24T02:05:58;4.43;;;2.45;;
73015;SDS011;61893;50.074;14.440;2023-04-24T02:08:24;4.97;;;2.88;;
73015;SDS011;61893;50.074;14.440;2023-04-24T02:10:52;3.75;;;2.40;;
73015;SDS011;61893;50.074;14.440;2023-04-24T02:13:37;4.00;;;2.15;;
73015;SDS011;61893;50.074;14.440;2023-04-24T02:16:27;3.40;;;2.13;;
73015;SDS011;61893;50.074;14.440;2023-04-24T02:19:31;2.63;;;2.13;;
73015;SDS011;61893;50.074;14.440;2023-04-24T02:23:04;2.97;;;1.90;;
73015;SDS011;61893;50.074;14.440;2023-04-24T02:25:53;5.55;;;2.60;;
73015;SDS011;61893;50.074;14.440;2023-04-24T02:28:19;3.88;;;2.50;;
73015;SDS011;61893;50.074;14.440;2023-04-24T02:31:40;3.38;;;2.53;;
73015;SDS011;61893;50.074;14.440;2023-04-24T02:34:42;4.43;;;1.80;;
73015;SDS011;61893;50.074;14.440;2023-04-24T02:37:37;4.68;;;1.80;;
73015;SDS011;61893;50.074;14.440;2023-04-24T02:40:05;4.50;;;2.33;;
73015;SDS011;61893;50.074;14.440;2023-04-24T02:42:31;2.38;;;1.67;;
73015;SDS011;61893;50.074;14.440;2023-04-24T02:44:57;2.70;;;1.45;;
73015;SDS011;61893;50.074;14.440;2023-04-24T02:47:32;3.05;;;1.63;;
73015;SDS011;61893;50.074;14.440;2023-04-24T02:49:58;2.17;;;1.80;;
73015;SDS011;61893;50.074;14.440;2023-04-24T02:52:26;2.97;;;1.60;;
73015;SDS011;61893;50.074;14.440;2023-04-24T02:55:07;4.25;;;1.73;;
73015;SDS011;61893;50.074;14.440;2023-04-24T02:57:33;2.47;;;1.70;;
73015;SDS011;61893;50.074;14.440;2023-04-24T02:59:59;4.00;;;1.50;;
73015;SDS011;61893;50.074;14.440;2023-04-24T03:02:30;4.63;;;1.55;;
73015;SDS011;61893;50.074;14.440;2023-04-24T03:05:22;2.42;;;1.60;;
73015;SDS011;61893;50.074;14.440;2023-04-24T03:08:29;4.95;;;1.48;;
73015;SDS011;61893;50.074;14.440;2023-04-24T03:10:54;10.68;;;1.70;;
73015;SDS011;61893;50.074;14.440;2023-04-24T03:13:23;3.05;;;1.60;;
73015;SDS011;61893;50.074;14.440;2023-04-24T03:15:52;1.55;;;1.17;;
73015;SDS011;61893;50.074;14.440;2023-04-24T03:18:46;6.40;;;1.80;;
73015;SDS011;61893;50.074;14.440;2023-04-24T03:21:14;3.03;;;1.50;;
73015;SDS011;61893;50.074;14.440;2023-04-24T03:23:43;4.75;;;1.38;;
73015;SDS011;61893;50.074;14.440;2023-04-24T03:26:27;2.38;;;1.55;;
73015;SDS011;61893;50.074;14.440;2023-04-24T03:28:56;2.10;;;1.58;;
73015;SDS011;61893;50.074;14.440;2023-04-24T03:31:24;2.92;;;1.50;;
73015;SDS011;61893;50.074;14.440;2023-04-24T03:34:03;2.88;;;1.50;;
73015;SDS011;61893;50.074;14.440;2023-04-24T03:36:31;4.90;;;1.80;;
73015;SDS011;61893;50.074;14.440;2023-04-24T03:39:09;2.55;;;1.40;;
73015;SDS011;61893;50.074;14.440;2023-04-24T03:41:45;5.32;;;1.52;;
73015;SDS011;61893;50.074;14.440;2023-04-24T03:44:48;2.10;;;1.42;;
73015;SDS011;61893;50.074;14.440;2023-04-24T03:47:19;4.10;;;1.90;;
73015;SDS011;61893;50.074;14.440;2023-04-24T03:50:06;2.80;;;1.80;;
73015;SDS011;61893;50.074;14.440;2023-04-24T03:52:51;3.25;;;1.58;;
73015;SDS011;61893;50.074;14.440;2023-04-24T03:55:23;2.53;;;1.55;;
73015;SDS011;61893;50.074;14.440;2023-04-24T03:58:02;2.42;;;1.40;;
73015;SDS011;61893;50.074;14.440;2023-04-24T04:01:04;2.83;;;1.75;;
73015;SDS011;61893;50.074;14.440;2023-04-24T04:08:56;3.05;;;2.08;;
73015;SDS011;61893;50.074;14.440;2023-04-24T04:11:33;2.75;;;1.92;;
73015;SDS011;61893;50.074;14.440;2023-04-24T04:14:35;6.10;;;2.17;;
73015;SDS011;61893;50.074;14.440;2023-04-24T04:17:24;3.40;;;2.27;;
73015;SDS011;61893;50.074;14.440;2023-04-24T04:20:17;5.05;;;2.25;;
73015;SDS011;61893;50.074;14.440;2023-04-24T04:22:48;2.75;;;1.88;;
73015;SDS011;61893;50.074;14.440;2023-04-24T04:25:28;4.00;;;2.30;;
73015;SDS011;61893;50.074;14.440;2023-04-24T04:28:20;2.90;;;1.98;;
73015;SDS011;61893;50.074;14.440;2023-04-24T04:31:33;3.00;;;2.05;;
73015;SDS011;61893;50.074;14.440;2023-04-24T04:35:00;3.30;;;2.40;;
73015;SDS011;61893;50.074;14.440;2023-04-24T04:37:54;5.38;;;2.20;;
73015;SDS011;61893;50.074;14.440;2023-04-24T04:40:51;4.15;;;2.28;;
73015;SDS011;61893;50.074;14.440;2023-04-24T04:44:01;4.15;;;1.90;;
73015;SDS011;61893;50.074;14.440;2023-04-24T04:47:07;2.55;;;1.90;;
73015;SDS011;61893;50.074;14.440;2023-04-24T04:50:06;3.28;;;2.03;;
73015;SDS011;61893;50.074;14.440;2023-04-24T04:52:48;5.22;;;1.98;;
73015;SDS011;61893;50.074;14.440;2023-04-24T04:55:52;2.75;;;1.90;;
73015;SDS011;61893;50.074;14.440;2023-04-24T04:58:33;3.10;;;2.28;;
73015;SDS011;61893;50.074;14.440;2023-04-24T05:00:59;4.30;;;2.10;;
73015;SDS011;61893;50.074;14.440;2023-04-24T05:03:42;2.28;;;1.92;;
73015;SDS011;61893;50.074;14.440;2023-04-24T05:06:52;5.53;;;2.25;;
73015;SDS011;61893;50.074;14.440;2023-04-24T05:10:07;3.58;;;2.00;;
73015;SDS011;61893;50.074;14.440;2023-04-24T05:12:41;2.83;;;1.98;;
73015;SDS011;61893;50.074;14.440;2023-04-24T05:15:25;2.67;;;2.17;;
73015;SDS011;61893;50.074;14.440;2023-04-24T05:18:34;6.32;;;2.45;;
73015;SDS011;61893;50.074;14.440;2023-04-24T05:21:28;4.97;;;2.10;;
73015;SDS011;61893;50.074;14.440;2023-04-24T05:24:33;5.97;;;2.55;;
73015;SDS011;61893;50.074;14.440;2023-04-24T05:27:04;3.88;;;2.88;;
73015;SDS011;61893;50.074;14.440;2023-04-24T05:29:30;4.10;;;2.42;;
73015;SDS011;61893;50.074;14.440;2023-04-24T05:33:04;2.80;;;2.28;;
73015;SDS011;61893;50.074;14.440;2023-04-24T05:35:34;3.70;;;2.20;;
73015;SDS011;61893;50.074;14.440;2023-04-24T05:38:38;3.25;;;2.05;;
73015;SDS011;61893;50.074;14.440;2023-04-24T05:41:07;4.38;;;2.08;;
73015;SDS011;61893;50.074;14.440;2023-04-24T05:43:43;2.75;;;2.08;;
73015;SDS011;61893;50.074;14.440;2023-04-24T05:46:33;5.05;;;3.33;;
73015;SDS011;61893;50.074;14.440;2023-04-24T05:49:37;4.00;;;2.53;;
73015;SDS011;61893;50.074;14.440;2023-04-24T05:52:06;5.43;;;3.20;;
73015;SDS011;61893;50.074;14.440;2023-04-24T05:54:49;5.30;;;2.63;;
73015;SDS011;61893;50.074;14.440;2023-04-24T05:57:17;6.38;;;2.63;;
73015;SDS011;61893;50.074;14.440;2023-04-24T08:03:26;19.05;;;3.25;;
73015;SDS011;61893;50.074;14.440;2023-04-24T08:59:15;3.97;;;2.92;;
73015;SDS011;61893;50.074;14.440;2023-04-24T09:02:46;6.30;;;3.53;;
73015;SDS011;61893;50.074;14.440;2023-04-24T09:05:32;6.43;;;3.08;;
73015;SDS011;61893;50.074;14.440;2023-04-24T09:08:34;7.07;;;4.18;;
73015;SDS011;61893;50.074;14.440;2023-04-24T09:11:35;8.88;;;3.80;;
73015;SDS011;61893;50.074;14.440;2023-04-24T09:14:14;4.90;;;3.80;;
73015;SDS011;61893;50.074;14.440;2023-04-24T09:17:06;6.90;;;3.85;;
73015;SDS011;61893;50.074;14.440;2023-04-24T09:20:28;5.38;;;3.40;;
73015;SDS011;61893;50.074;14.440;2023-04-24T09:23:37;6.80;;;3.88;;
73015;SDS011;61893;50.074;14.440;2023-04-24T09:26:43;5.85;;;3.80;;
73015;SDS011;61893;50.074;14.440;2023-04-24T09:30:04;12.05;;;3.92;;
73015;SDS011;61893;50.074;14.440;2023-04-24T09:36:17;5.88;;;3.75;;
73015;SDS011;61893;50.074;14.440;2023-04-24T09:56:11;19.23;;;3.40;;
73015;SDS011;61893;50.074;14.440;2023-04-24T09:58:43;16.83;;;3.78;;
73015;SDS011;61893;50.074;14.440;2023-04-24T10:01:11;22.83;;;3.47;;
73015;SDS011;61893;50.074;14.440;2023-04-24T10:03:38;18.55;;;3.53;;
73015;SDS011;61893;50.074;14.440;2023-04-24T10:06:11;15.27;;;3.63;;
73015;SDS011;61893;50.074;14.440;2023-04-24T10:08:38;8.13;;;2.65;;
73015;SDS011;61893;50.074;14.440;2023-04-24T10:11:04;11.18;;;2.72;;
73015;SDS011;61893;50.074;14.440;2023-04-24T10:13:30;11.85;;;2.90;;
73015;SDS011;61893;50.074;14.440;2023-04-24T10:15:57;10.65;;;2.60;;
73015;SDS011;61893;50.074;14.440;2023-04-24T10:18:25;3.90;;;2.47;;
73015;SDS011;61893;50.074;14.440;2023-04-24T10:20:52;9.18;;;2.38;;
73015;SDS011;61893;50.074;14.440;2023-04-24T10:23:20;13.75;;;2.80;;
73015;SDS011;61893;50.074;14.440;2023-04-24T10:25:47;8.20;;;2.00;;
73015;SDS011;61893;50.074;14.440;2023-04-24T10:28:15;15.40;;;1.85;;
73015;SDS011;61893;50.074;14.440;2023-04-24T10:30:42;9.15;;;2.28;;
73015;SDS011;61893;50.074;14.440;2023-04-24T10:33:09;6.72;;;1.70;;
73015;SDS011;61893;50.074;14.440;2023-04-24T10:35:37;6.55;;;1.38;;
73015;SDS011;61893;50.074;14.440;2023-04-24T10:38:13;16.92;;;3.28;;
73015;SDS011;61893;50.074;14.440;2023-04-24T10:40:42;23.60;;;3.63;;
73015;SDS011;61893;50.074;14.440;2023-04-24T10:43:08;16.40;;;3.72;;
73015;SDS011;61893;50.074;14.440;2023-04-24T10:45:37;23.88;;;3.25;;
73015;SDS011;61893;50.074;14.440;2023-04-24T10:48:04;17.83;;;3.53;;
73015;SDS011;61893;50.074;14.440;2023-04-24T10:50:46;18.05;;;4.63;;
73015;SDS011;61893;50.074;14.440;2023-04-24T10:53:14;15.75;;;3.35;;
73015;SDS011;61893;50.074;14.440;2023-04-24T10:55:44;17.50;;;3.00;;
73015;SDS011;61893;50.074;14.440;2023-04-24T10:58:22;11.95;;;2.53;;
73015;SDS011;61893;50.074;14.440;2023-04-24T11:01:00;11.80;;;2.40;;
73015;SDS011;61893;50.074;14.440;2023-04-24T11:03:30;18.75;;;2.78;;
73015;SDS011;61893;50.074;14.440;2023-04-24T11:06:04;13.60;;;2.58;;
73015;SDS011;61893;50.074;14.440;2023-04-24T11:08:38;16.60;;;3.05;;
73015;SDS011;61893;50.074;14.440;2023-04-24T11:11:08;21.27;;;2.70;;
73015;SDS011;61893;50.074;14.440;2023-04-24T11:32:26;16.42;;;2.65;;
73015;SDS011;61893;50.074;14.440;2023-04-24T13:09:57;3.53;;;1.40;;
73015;SDS011;61893;50.074;14.440;2023-04-24T15:37:17;3.85;;;1.02;;
73015;SDS011;61893;50.074;14.440;2023-04-24T16:06:45;7.13;;;1.20;;
73015;SDS011;61893;50.074;14.440;2023-04-24T16:52:27;2.35;;;0.90;;
73015;SDS011;61893;50.074;14.440;2023-04-24T16:55:27;1.95;;;1.10;;
73015;SDS011;61893;50.074;14.440;2023-04-24T17:04:31;1.00;;;0.90;;
73015;SDS011;61893;50.074;14.440;2023-04-24T17:13:31;2.22;;;1.10;;
73015;SDS011;61893;50.074;14.440;2023-04-24T17:28:28;1.90;;;1.42;;
73015;SDS011;61893;50.074;14.440;2023-04-24T18:12:04;4.93;;;2.20;;
73015;SDS011;61893;50.074;14.440;2023-04-24T18:25:16;2.80;;;1.30;;
73015;SDS011;61893;50.074;14.440;2023-04-24T18:31:08;4.22;;;1.80;;
73015;SDS011;61893;50.074;14.440;2023-04-24T18:46:28;2.13;;;1.40;;
73015;SDS011;61893;50.074;14.440;2023-04-24T19:26:49;2.38;;;1.70;;
73015;SDS011;61893;50.074;14.440;2023-04-24T19:29:38;2.35;;;1.70;;
73015;SDS011;61893;50.074;14.440;2023-04-24T19:36:19;2.03;;;1.30;;
73015;SDS011;61893;50.074;14.440;2023-04-24T19:50:43;3.28;;;1.20;;
73015;SDS011;61893;50.074;14.440;2023-04-24T20:04:56;2.50;;;1.48;;
73015;SDS011;61893;50.074;14.440;2023-04-24T20:11:20;2.15;;;1.00;;
73015;SDS011;61893;50.074;14.440;2023-04-24T20:14:11;2.45;;;1.50;;
73015;SDS011;61893;50.074;14.440;2023-04-24T20:20:25;1.65;;;1.13;;
73015;SDS011;61893;50.074;14.440;2023-04-24T21:07:25;2.75;;;1.38;;
73015;SDS011;61893;50.074;14.440;2023-04-24T21:22:38;2.70;;;1.67;;
73015;SDS011;61893;50.074;14.440;2023-04-24T21:25:30;2.28;;;1.73;;
73015;SDS011;61893;50.074;14.440;2023-04-24T21:27:58;2.55;;;1.77;;
73015;SDS011;61893;50.074;14.440;2023-04-24T21:33:36;2.45;;;1.60;;
73015;SDS011;61893;50.074;14.440;2023-04-24T21:45:43;2.33;;;1.63;;
73015;SDS011;61893;50.074;14.440;2023-04-24T21:51:51;1.90;;;1.50;;
73015;SDS011;61893;50.074;14.440;2023-04-24T21:57:13;3.35;;;1.58;;
73015;SDS011;61893;50.074;14.440;2023-04-24T21:59:41;3.17;;;1.50;;
73015;SDS011;61893;50.074;14.440;2023-04-24T22:14:52;3.00;;;1.60;;
73015;SDS011;61893;50.074;14.440;2023-04-24T22:20:22;1.98;;;1.60;;
73015;SDS011;61893;50.074;14.440;2023-04-24T22:23:16;2.25;;;1.50;;
73015;SDS011;61893;50.074;14.440;2023-04-24T22:26:06;3.25;;;1.60;;
73015;SDS011;61893;50.074;14.440;2023-04-24T22:28:32;2.63;;;1.60;;
73015;SDS011;61893;50.074;14.440;2023-04-24T22:30:58;2.63;;;1.75;;
73015;SDS011;61893;50.074;14.440;2023-04-24T22:33:36;4.13;;;1.80;;
73015;SDS011;61893;50.074;14.440;2023-04-24T22:36:02;2.55;;;1.70;;
73015;SDS011;61893;50.074;14.440;2023-04-24T22:41:33;1.98;;;1.70;;
73015;SDS011;61893;50.074;14.440;2023-04-24T22:44:02;1.90;;;1.55;;
73015;SDS011;61893;50.074;14.440;2023-04-24T22:46:28;3.05;;;1.80;;
73015;SDS011;61893;50.074;14.440;2023-04-24T22:48:55;2.13;;;1.58;;
73015;SDS011;61893;50.074;14.440;2023-04-24T22:51:22;4.50;;;1.65;;
73015;SDS011;61893;50.074;14.440;2023-04-24T22:53:48;2.80;;;1.70;;
73015;SDS011;61893;50.074;14.440;2023-04-24T22:56:14;3.83;;;1.80;;
73015;SDS011;61893;50.074;14.440;2023-04-24T22:58:40;3.20;;;1.95;;
73015;SDS011;61893;50.074;14.440;2023-04-24T23:01:05;4.53;;;1.80;;
73015;SDS011;61893;50.074;14.440;2023-04-24T23:03:31;2.53;;;1.80;;
73015;SDS011;61893;50.074;14.440;2023-04-24T23:06:00;5.13;;;1.80;;
73015;SDS011;61893;50.074;14.440;2023-04-24T23:08:26;3.00;;;2.20;;
73015;SDS011;61893;50.074;14.440;2023-04-24T23:10:51;2.97;;;1.80;;
73015;SDS011;61893;50.074;14.440;2023-04-24T23:13:18;3.35;;;2.08;;
73015;SDS011;61893;50.074;14.440;2023-04-24T23:15:43;2.92;;;1.90;;
73015;SDS011;61893;50.074;14.440;2023-04-24T23:18:09;3.78;;;2.10;;
73015;SDS011;61893;50.074;14.440;2023-04-24T23:20:36;4.43;;;2.00;;
73015;SDS011;61893;50.074;14.440;2023-04-24T23:23:03;4.50;;;2.27;;
73015;SDS011;61893;50.074;14.440;2023-04-24T23:25:29;2.05;;;1.60;;
73015;SDS011;61893;50.074;14.440;2023-04-24T23:27:57;4.15;;;2.90;;
73015;SDS011;61893;50.074;14.440;2023-04-24T23:30:23;4.35;;;2.30;;
73015;SDS011;61893;50.074;14.440;2023-04-24T23:32:48;3.75;;;2.20;;
73015;SDS011;61893;50.074;14.440;2023-04-24T23:35:14;3.40;;;2.30;;
73015;SDS011;61893;50.074;14.440;2023-04-24T23:37:43;3.97;;;2.33;;
73015;SDS011;61893;50.074;14.440;2023-04-24T23:40:14;3.05;;;2.15;;
73015;SDS011;61893;50.074;14.440;2023-04-24T23:42:41;3.90;;;2.35;;
73015;SDS011;61893;50.074;14.440;2023-04-24T23:45:07;3.08;;;2.20;;
73015;SDS011;61893;50.074;14.440;2023-04-24T23:47:45;3.47;;;2.17;;
73015;SDS011;61893;50.074;14.440;2023-04-24T23:50:11;2.80;;;2.38;;
73015;SDS011;61893;50.074;14.440;2023-04-24T23:52:36;4.07;;;2.00;;
73015;SDS011;61893;50.074;14.440;2023-04-24T23:55:02;3.20;;;2.10;;
73015;SDS011;61893;50.074;14.440;2023-04-24T23:57:29;3.17;;;2.38;;
